createdAt,value
2023-03-29T00:00:16.849Z,101638.97
2023-03-29T00:02:48.800Z,101635.97
2023-03-29T00:05:19.206Z,101640.22
2023-03-29T00:07:47.010Z,101644.63
2023-03-29T00:10:17.445Z,101647.22
2023-03-29T00:12:45.215Z,101645.81
2023-03-29T00:15:13.262Z,101645.44
2023-03-29T00:17:41.014Z,101636.56
2023-03-29T00:20:12.531Z,101640.63
2023-03-29T00:22:44.530Z,101635.63
2023-03-29T00:25:13.577Z,101631.94
2023-03-29T00:27:41.701Z,101622.53
2023-03-29T00:30:10.370Z,101627.28
2023-03-29T00:32:38.596Z,101616.13
2023-03-29T00:35:07.593Z,101628.75
2023-03-29T00:37:35.690Z,101616.84
2023-03-29T00:40:08.490Z,101613.16
2023-03-29T00:42:36.468Z,101609.81
2023-03-29T00:45:16.692Z,101602.47
2023-03-29T00:47:57.507Z,101595.91
2023-03-29T00:50:41.366Z,101594.69
2023-03-29T00:53:15.242Z,101567.91
2023-03-29T00:56:04.643Z,101562.56
2023-03-29T00:58:39.521Z,101568.31
2023-03-29T01:01:11.723Z,101570.47
2023-03-29T01:04:08.624Z,101560.09
2023-03-29T01:06:39.735Z,101542.03
2023-03-29T01:09:12.753Z,101538.41
2023-03-29T01:11:54.808Z,101525.28
2023-03-29T01:14:35.312Z,101523.50
2023-03-29T01:17:04.848Z,101524.56
2023-03-29T01:19:39.483Z,101524.25
2023-03-29T01:22:22.711Z,101506.69
2023-03-29T01:25:05.479Z,101503.53
2023-03-29T01:27:39.228Z,101521.66
2023-03-29T01:30:14.516Z,101515.16
2023-03-29T01:32:59.354Z,101512.50
2023-03-29T01:35:48.580Z,101518.69
2023-03-29T01:38:21.702Z,101525.22
2023-03-29T01:40:49.528Z,101526.34
2023-03-29T01:43:28.457Z,101532.78
2023-03-29T01:46:21.736Z,101530.78
2023-03-29T01:48:49.505Z,101545.38
2023-03-29T01:51:39.693Z,101542.16
2023-03-29T01:54:19.203Z,101545.63
2023-03-29T01:56:50.272Z,101548.38
2023-03-29T01:59:23.013Z,101541.28
2023-03-29T02:01:55.574Z,101527.41
2023-03-29T02:04:33.156Z,101526.13
2023-03-29T02:07:03.330Z,101525.91
2023-03-29T02:09:33.584Z,101525.53
2023-03-29T02:12:07.373Z,101537.16
2023-03-29T02:14:35.691Z,101528.97
2023-03-29T02:17:19.827Z,101532.41
2023-03-29T02:19:51.439Z,101546.53
2023-03-29T02:22:26.060Z,101544.03
2023-03-29T02:24:59.452Z,101545.69
2023-03-29T02:27:29.759Z,101548.16
2023-03-29T02:29:58.752Z,101547.94
2023-03-29T02:33:17.322Z,101543.19
2023-03-29T02:36:15.866Z,101540.69
2023-03-29T02:38:44.191Z,101537.84
2023-03-29T02:41:13.213Z,101522.91
2023-03-29T02:43:42.356Z,101529.88
2023-03-29T02:46:11.559Z,101532.53
2023-03-29T02:48:40.963Z,101523.72
2023-03-29T02:51:19.380Z,101519.94
2023-03-29T02:54:19.655Z,101529.31
2023-03-29T02:56:57.149Z,101516.69
2023-03-29T02:59:25.095Z,101524.31
2023-03-29T03:01:53.713Z,101526.31
2023-03-29T03:04:22.406Z,101531.88
2023-03-29T03:06:50.501Z,101534.28
2023-03-29T03:09:18.709Z,101535.59
2023-03-29T03:11:48.097Z,101531.44
2023-03-29T03:14:16.832Z,101529.66
2023-03-29T03:16:44.934Z,101536.78
2023-03-29T03:19:12.745Z,101529.19
2023-03-29T03:21:40.465Z,101536.22
2023-03-29T03:24:08.386Z,101528.25
2023-03-29T03:26:38.339Z,101521.16
2023-03-29T03:29:06.951Z,101534.03
2023-03-29T03:31:54.252Z,101536.19
2023-03-29T03:34:42.600Z,101536.56
2023-03-29T03:37:12.237Z,101532.75
2023-03-29T03:39:40.448Z,101527.19
2023-03-29T03:42:10.442Z,101533.81
2023-03-29T03:44:43.292Z,101539.88
2023-03-29T03:47:31.361Z,101535.72
2023-03-29T03:50:11.948Z,101537.25
2023-03-29T03:52:40.114Z,101543.88
2023-03-29T03:55:09.453Z,101544.97
2023-03-29T03:57:48.082Z,101537.84
2023-03-29T04:00:21.975Z,101535.25
2023-03-29T04:03:02.488Z,101530.97
2023-03-29T04:05:30.769Z,101530.75
2023-03-29T04:07:58.504Z,101535.00
2023-03-29T04:10:56.988Z,101529.53
2023-03-29T04:13:30.280Z,101530.75
2023-03-29T04:16:16.693Z,101537.59
2023-03-29T04:18:45.151Z,101541.97
2023-03-29T04:21:13.495Z,101533.28
2023-03-29T04:23:43.082Z,101541.19
2023-03-29T04:26:12.411Z,101538.41
2023-03-29T04:29:03.017Z,101523.00
2023-03-29T04:31:46.155Z,101542.97
2023-03-29T04:34:22.899Z,101544.63
2023-03-29T04:36:54.374Z,101544.47
2023-03-29T04:39:32.172Z,101539.91
2023-03-29T04:42:00.853Z,101551.88
2023-03-29T04:44:30.641Z,101548.34
2023-03-29T04:47:00.858Z,101556.84
2023-03-29T04:49:38.123Z,101556.19
2023-03-29T04:52:11.949Z,101557.75
2023-03-29T04:54:39.864Z,101555.72
2023-03-29T04:57:25.352Z,101557.03
2023-03-29T05:00:00.968Z,101559.41
2023-03-29T05:02:48.813Z,101557.88
2023-03-29T05:05:16.772Z,101561.34
2023-03-29T05:07:46.668Z,101563.97
2023-03-29T05:10:16.373Z,101560.34
2023-03-29T05:12:44.971Z,101565.50
2023-03-29T05:15:13.581Z,101555.72
2023-03-29T05:17:42.459Z,101552.16
2023-03-29T05:20:13.382Z,101548.66
2023-03-29T05:22:44.098Z,101552.06
2023-03-29T05:25:19.798Z,101556.44
2023-03-29T05:27:47.867Z,101557.84
2023-03-29T05:30:15.990Z,101551.91
2023-03-29T05:32:53.176Z,101549.09
2023-03-29T05:35:26.441Z,101548.94
2023-03-29T05:37:56.519Z,101542.72
2023-03-29T05:40:26.376Z,101541.72
2023-03-29T05:43:27.564Z,101546.78
2023-03-29T05:45:56.458Z,101554.56
2023-03-29T05:48:26.020Z,101552.22
2023-03-29T05:50:56.440Z,101552.97
2023-03-29T05:53:26.558Z,101558.53
2023-03-29T05:55:55.639Z,101569.63
2023-03-29T05:58:26.738Z,101563.31
2023-03-29T06:00:55.429Z,101566.28
2023-03-29T06:03:43.892Z,101561.63
2023-03-29T06:06:11.894Z,101579.91
2023-03-29T06:08:39.756Z,101577.28
2023-03-29T06:11:24.495Z,101584.22
2023-03-29T06:14:19.694Z,101587.72
2023-03-29T06:16:55.166Z,101592.09
2023-03-29T06:19:23.348Z,101590.19
2023-03-29T06:21:53.336Z,101575.44
2023-03-29T06:24:25.248Z,101592.53
2023-03-29T06:27:00.371Z,101580.91
2023-03-29T06:29:28.504Z,101573.66
2023-03-29T06:31:57.392Z,101565.38
2023-03-29T06:34:45.617Z,101567.41
2023-03-29T06:37:49.595Z,101575.06
2023-03-29T06:40:25.609Z,101573.28
2023-03-29T06:42:59.494Z,101586.75
2023-03-29T06:45:40.124Z,101596.13
2023-03-29T06:48:14.412Z,101595.75
2023-03-29T06:50:42.594Z,101597.28
2023-03-29T06:53:12.235Z,101595.81
2023-03-29T06:55:41.794Z,101599.53
2023-03-29T06:58:39.288Z,101604.78
2023-03-29T07:01:20.804Z,101604.56
2023-03-29T07:03:54.942Z,101600.75
2023-03-29T07:06:29.783Z,101602.34
2023-03-29T07:09:00.729Z,101631.53
2023-03-29T07:11:43.545Z,101624.16
2023-03-29T07:14:28.741Z,101621.19
2023-03-29T07:16:58.653Z,101624.53
2023-03-29T07:19:34.322Z,101630.28
2023-03-29T07:22:08.356Z,101640.50
2023-03-29T07:24:45.912Z,101644.66
2023-03-29T07:27:14.855Z,101653.47
2023-03-29T07:29:43.348Z,101651.59
2023-03-29T07:32:11.520Z,101649.97
2023-03-29T07:34:42.320Z,101663.75
2023-03-29T07:37:15.586Z,101654.47
2023-03-29T07:39:45.695Z,101650.06
2023-03-29T07:42:29.210Z,101660.53
2023-03-29T07:44:58.772Z,101645.66
2023-03-29T07:47:33.171Z,101644.31
2023-03-29T07:50:01.630Z,101647.84
2023-03-29T07:52:30.406Z,101660.53
2023-03-29T07:54:59.966Z,101656.41
2023-03-29T07:57:38.437Z,101651.94
2023-03-29T08:00:11.764Z,101644.03
2023-03-29T08:02:44.876Z,101658.59
2023-03-29T08:05:15.450Z,101646.25
2023-03-29T08:07:52.838Z,101647.84
2023-03-29T08:10:42.181Z,101644.28
2023-03-29T08:13:28.625Z,101640.44
2023-03-29T08:16:14.813Z,101635.75
2023-03-29T08:18:50.529Z,101623.66
2023-03-29T08:21:20.550Z,101610.72
2023-03-29T08:23:50.634Z,101612.06
2023-03-29T08:26:26.881Z,101623.59
2023-03-29T08:28:56.918Z,101606.56
2023-03-29T08:31:27.433Z,101628.00
2023-03-29T08:33:55.538Z,101614.47
2023-03-29T08:36:40.698Z,101631.75
2023-03-29T08:39:16.898Z,101625.75
2023-03-29T08:42:07.670Z,101619.94
2023-03-29T08:45:05.335Z,101627.38
2023-03-29T08:47:39.110Z,101626.50
2023-03-29T08:50:11.159Z,101631.97
2023-03-29T08:52:49.539Z,101621.56
2023-03-29T08:55:42.829Z,101608.69
2023-03-29T08:58:35.055Z,101623.69
2023-03-29T09:01:08.855Z,101619.00
2023-03-29T09:04:00.386Z,101607.97
2023-03-29T09:06:41.973Z,101609.91
2023-03-29T09:09:22.284Z,101611.84
2023-03-29T09:12:35.755Z,101609.66
2023-03-29T09:15:14.709Z,101617.84
2023-03-29T09:18:11.493Z,101606.06
2023-03-29T09:20:49.985Z,101605.41
2023-03-29T09:23:52.794Z,101603.44
2023-03-29T09:26:45.902Z,101607.78
2023-03-29T09:29:56.722Z,101606.78
2023-03-29T09:33:03.247Z,101593.50
2023-03-29T09:35:54.807Z,101593.44
2023-03-29T09:38:23.072Z,101597.31
2023-03-29T09:40:57.465Z,101593.81
2023-03-29T09:43:33.123Z,101595.50
2023-03-29T09:46:11.258Z,101595.00
2023-03-29T09:48:41.437Z,101595.53
2023-03-29T09:51:13.099Z,101599.59
2023-03-29T09:53:41.750Z,101601.31
2023-03-29T09:56:19.208Z,101594.28
2023-03-29T09:58:50.500Z,101585.41
2023-03-29T10:01:20.490Z,101591.19
2023-03-29T10:03:53.619Z,101580.06
2023-03-29T10:06:25.724Z,101565.88
2023-03-29T10:09:02.482Z,101580.19
2023-03-29T10:11:39.149Z,101565.72
2023-03-29T10:14:18.497Z,101568.44
2023-03-29T10:16:46.858Z,101558.97
2023-03-29T10:19:34.965Z,101551.69
2023-03-29T10:22:07.774Z,101562.88
2023-03-29T10:24:35.697Z,101553.63
2023-03-29T10:27:11.836Z,101548.84
2023-03-29T10:29:43.476Z,101544.53
2023-03-29T10:32:27.893Z,101542.78
2023-03-29T10:34:59.842Z,101535.72
2023-03-29T10:37:28.931Z,101531.47
2023-03-29T10:39:56.875Z,101529.00
2023-03-29T10:42:26.013Z,101517.84
2023-03-29T10:44:59.449Z,101520.25
2023-03-29T10:47:31.789Z,101514.59
2023-03-29T10:49:59.588Z,101505.69
2023-03-29T10:52:30.190Z,101512.09
2023-03-29T10:54:59.459Z,101503.44
2023-03-29T10:57:45.837Z,101503.50
2023-03-29T11:00:37.311Z,101517.88
2023-03-29T11:03:14.268Z,101497.16
2023-03-29T11:05:49.540Z,101501.50
2023-03-29T11:08:32.220Z,101495.47
2023-03-29T11:11:18.922Z,101495.78
2023-03-29T11:14:09.152Z,101489.22
2023-03-29T11:16:56.917Z,101486.88
2023-03-29T11:19:50.788Z,101493.41
2023-03-29T11:22:21.507Z,101490.66
2023-03-29T11:25:01.225Z,101488.09
2023-03-29T11:27:34.023Z,101475.97
2023-03-29T11:30:15.929Z,101472.22
2023-03-29T11:33:13.177Z,101474.66
2023-03-29T11:36:02.774Z,101475.69
2023-03-29T11:38:45.227Z,101464.00
2023-03-29T11:41:19.867Z,101467.91
2023-03-29T11:43:56.900Z,101472.00
2023-03-29T11:46:40.445Z,101475.47
2023-03-29T11:49:15.062Z,101474.81
2023-03-29T11:51:53.740Z,101482.56
2023-03-29T11:54:47.561Z,101476.91
2023-03-29T11:57:44.309Z,101462.13
2023-03-29T12:00:16.277Z,101465.19
2023-03-29T12:02:58.816Z,101465.00
2023-03-29T12:05:36.170Z,101458.34
2023-03-29T12:08:06.382Z,101456.50
2023-03-29T12:10:46.558Z,101452.47
2023-03-29T12:13:24.748Z,101446.34
2023-03-29T12:16:06.039Z,101442.44
2023-03-29T12:18:41.141Z,101441.63
2023-03-29T12:21:20.126Z,101441.88
2023-03-29T12:23:49.625Z,101435.78
2023-03-29T12:26:49.805Z,101434.25
2023-03-29T12:29:39.536Z,101422.31
2023-03-29T12:32:16.505Z,101436.66
2023-03-29T12:35:05.421Z,101422.78
2023-03-29T12:38:00.721Z,101414.78
2023-03-29T12:41:02.341Z,101412.69
2023-03-29T12:43:49.579Z,101424.78
2023-03-29T12:46:36.734Z,101429.56
2023-03-29T12:49:21.084Z,101410.91
2023-03-29T12:51:49.260Z,101408.13
2023-03-29T12:54:21.952Z,101410.78
2023-03-29T12:56:52.874Z,101409.78
2023-03-29T12:59:44.240Z,101398.59
2023-03-29T13:02:15.220Z,101415.25
2023-03-29T13:04:43.253Z,101404.81
2023-03-29T13:07:15.287Z,101400.50
2023-03-29T13:09:52.193Z,101397.84
2023-03-29T13:12:23.037Z,101395.25
2023-03-29T13:14:58.065Z,101384.78
2023-03-29T13:17:53.559Z,101385.97
2023-03-29T13:20:40.290Z,101386.16
2023-03-29T13:23:42.419Z,101379.94
2023-03-29T13:26:35.669Z,101377.69
2023-03-29T13:29:37.315Z,101383.59
2023-03-29T13:32:27.651Z,101380.97
2023-03-29T13:35:31.036Z,101372.97
2023-03-29T13:38:05.361Z,101379.31
2023-03-29T13:40:44.153Z,101372.28
2023-03-29T13:43:20.848Z,101369.47
2023-03-29T13:45:58.128Z,101367.16
2023-03-29T13:48:49.122Z,101360.50
2023-03-29T13:51:28.238Z,101355.44
2023-03-29T13:53:58.550Z,101359.81
2023-03-29T13:56:33.105Z,101357.72
2023-03-29T13:59:15.819Z,101353.63
2023-03-29T14:01:53.598Z,101353.75
2023-03-29T14:04:25.948Z,101349.69
2023-03-29T14:07:03.882Z,101334.63
2023-03-29T14:09:36.186Z,101350.63
2023-03-29T14:12:05.024Z,101346.91
2023-03-29T14:14:33.255Z,101338.81
2023-03-29T14:17:02.880Z,101340.44
2023-03-29T14:19:33.221Z,101338.81
2023-03-29T14:22:02.667Z,101339.81
2023-03-29T14:24:40.417Z,101334.94
2023-03-29T14:27:11.582Z,101325.94
2023-03-29T14:29:39.721Z,101321.00
2023-03-29T14:32:17.010Z,101319.25
2023-03-29T14:34:48.950Z,101324.66
2023-03-29T14:37:28.706Z,101322.84
2023-03-29T14:39:58.739Z,101332.13
2023-03-29T14:42:28.798Z,101323.69
2023-03-29T14:45:08.065Z,101322.50
2023-03-29T14:47:37.104Z,101332.34
2023-03-29T14:50:06.367Z,101320.78
2023-03-29T14:52:35.108Z,101324.22
2023-03-29T14:55:04.307Z,101334.13
2023-03-29T14:57:36.760Z,101335.97
2023-03-29T15:00:19.015Z,101329.59
2023-03-29T15:02:54.977Z,101335.03
2023-03-29T15:05:26.517Z,101333.91
2023-03-29T15:07:56.409Z,101334.56
2023-03-29T15:10:28.434Z,101331.94
2023-03-29T15:12:57.330Z,101321.50
2023-03-29T15:15:27.302Z,101327.19
2023-03-29T15:17:58.545Z,101324.84
2023-03-29T15:20:30.141Z,101322.06
2023-03-29T15:23:16.153Z,101317.50
2023-03-29T15:26:15.342Z,101319.59
2023-03-29T15:29:00.681Z,101319.59
2023-03-29T15:31:40.584Z,101330.88
2023-03-29T15:34:12.305Z,101333.28
2023-03-29T15:36:48.312Z,101335.53
2023-03-29T15:39:18.126Z,101317.56
2023-03-29T15:41:52.673Z,101321.97
2023-03-29T15:44:29.229Z,101320.00
2023-03-29T15:46:58.552Z,101318.19
2023-03-29T15:49:27.354Z,101307.91
2023-03-29T15:51:55.311Z,101305.25
2023-03-29T15:54:25.000Z,101307.56
2023-03-29T15:57:03.689Z,101305.72
2023-03-29T15:59:32.177Z,101302.94
2023-03-29T16:02:00.610Z,101304.88
2023-03-29T16:04:29.188Z,101303.06
2023-03-29T16:06:57.889Z,101295.88
2023-03-29T16:09:30.476Z,101287.53
2023-03-29T16:12:01.467Z,101288.00
2023-03-29T16:14:31.765Z,101287.94
2023-03-29T16:17:02.677Z,101290.91
2023-03-29T16:19:33.105Z,101279.63
2023-03-29T16:22:08.944Z,101278.00
2023-03-29T16:24:37.431Z,101277.16
2023-03-29T16:27:05.644Z,101273.72
2023-03-29T16:29:36.060Z,101280.47
2023-03-29T16:32:05.477Z,101286.63
2023-03-29T16:34:36.137Z,101286.00
2023-03-29T16:37:04.083Z,101285.19
2023-03-29T16:39:31.971Z,101285.66
2023-03-29T16:42:00.546Z,101288.59
2023-03-29T16:44:29.211Z,101300.31
2023-03-29T16:47:00.154Z,101290.00
2023-03-29T16:49:28.981Z,101295.03
2023-03-29T16:51:57.339Z,101290.44
2023-03-29T16:54:26.000Z,101300.03
2023-03-29T16:56:53.981Z,101297.06
2023-03-29T16:59:22.052Z,101305.13
2023-03-29T17:01:50.831Z,101309.41
2023-03-29T17:04:19.593Z,101294.66
2023-03-29T17:06:47.885Z,101304.00
2023-03-29T17:09:17.769Z,101310.69
2023-03-29T17:11:47.876Z,101308.28
2023-03-29T17:14:15.955Z,101303.25
2023-03-29T17:16:43.963Z,101308.50
2023-03-29T17:19:12.680Z,101302.13
2023-03-29T17:21:41.301Z,101306.47
2023-03-29T17:24:10.127Z,101313.25
2023-03-29T17:26:38.493Z,101312.03
2023-03-29T17:29:07.729Z,101315.84
2023-03-29T17:31:36.798Z,101303.25
2023-03-29T17:34:04.663Z,101318.44
2023-03-29T17:36:33.852Z,101312.69
2023-03-29T17:39:02.976Z,101309.84
2023-03-29T17:41:31.428Z,101319.19
2023-03-29T17:43:59.401Z,101323.06
2023-03-29T17:46:27.408Z,101323.69
2023-03-29T17:48:56.225Z,101324.19
2023-03-29T17:51:24.178Z,101329.31
2023-03-29T17:53:52.427Z,101324.72
2023-03-29T17:56:20.728Z,101333.94
2023-03-29T17:58:49.489Z,101340.16
2023-03-29T18:01:21.374Z,101346.53
2023-03-29T18:03:49.370Z,101353.69
2023-03-29T18:06:20.480Z,101359.03
2023-03-29T18:08:48.632Z,101359.63
2023-03-29T18:11:25.045Z,101374.66
2023-03-29T18:13:58.437Z,101368.88
2023-03-29T18:16:27.988Z,101378.50
2023-03-29T18:18:55.952Z,101379.22
2023-03-29T18:21:26.159Z,101384.53
2023-03-29T18:23:56.648Z,101383.28
2023-03-29T18:26:25.328Z,101391.25
2023-03-29T18:28:53.525Z,101387.38
2023-03-29T18:31:22.399Z,101385.34
2023-03-29T18:33:50.687Z,101399.63
2023-03-29T18:36:18.732Z,101396.13
2023-03-29T18:38:46.595Z,101391.59
2023-03-29T18:41:14.500Z,101404.41
2023-03-29T18:43:43.372Z,101401.66
2023-03-29T18:46:11.396Z,101400.63
2023-03-29T18:48:39.366Z,101409.22
2023-03-29T18:51:08.657Z,101423.09
2023-03-29T18:53:37.912Z,101419.22
2023-03-29T18:56:06.770Z,101425.88
2023-03-29T18:58:35.034Z,101422.88
2023-03-29T19:01:05.368Z,101427.53
2023-03-29T19:03:34.987Z,101429.91
2023-03-29T19:06:03.706Z,101429.59
2023-03-29T19:08:33.099Z,101436.75
2023-03-29T19:11:03.971Z,101432.44
2023-03-29T19:13:31.901Z,101434.34
2023-03-29T19:15:59.766Z,101441.97
2023-03-29T19:18:27.821Z,101438.69
2023-03-29T19:20:56.482Z,101434.84
2023-03-29T19:23:27.332Z,101435.56
2023-03-29T19:25:57.840Z,101438.34
2023-03-29T19:28:27.492Z,101448.91
2023-03-29T19:30:56.842Z,101444.28
2023-03-29T19:33:24.686Z,101440.69
2023-03-29T19:35:52.685Z,101455.00
2023-03-29T19:38:21.585Z,101445.69
2023-03-29T19:40:50.630Z,101444.63
2023-03-29T19:43:18.741Z,101455.72
2023-03-29T19:45:49.877Z,101452.72
2023-03-29T19:48:23.485Z,101445.34
2023-03-29T19:50:52.172Z,101448.19
2023-03-29T19:53:20.063Z,101451.50
2023-03-29T19:55:49.899Z,101454.81
2023-03-29T19:58:17.922Z,101456.44
2023-03-29T20:00:46.733Z,101457.28
2023-03-29T20:03:15.818Z,101459.28
2023-03-29T20:05:43.844Z,101466.78
2023-03-29T20:08:11.679Z,101469.28
2023-03-29T20:10:42.008Z,101459.63
2023-03-29T20:13:09.936Z,101463.50
2023-03-29T20:15:37.800Z,101469.91
2023-03-29T20:18:06.103Z,101464.19
2023-03-29T20:20:35.809Z,101472.16
2023-03-29T20:23:05.285Z,101471.06
2023-03-29T20:25:36.322Z,101483.75
2023-03-29T20:28:04.981Z,101485.94
2023-03-29T20:30:32.864Z,101481.34
2023-03-29T20:33:01.057Z,101478.56
2023-03-29T20:35:29.080Z,101487.13
2023-03-29T20:37:56.902Z,101481.94
2023-03-29T20:40:24.898Z,101488.75
2023-03-29T20:42:54.378Z,101489.28
2023-03-29T20:45:22.141Z,101483.28
2023-03-29T20:48:02.440Z,101483.59
2023-03-29T20:50:30.424Z,101490.16
2023-03-29T20:53:03.751Z,101490.47
2023-03-29T20:55:33.521Z,101492.41
2023-03-29T20:58:02.528Z,101496.53
2023-03-29T21:00:33.700Z,101503.97
2023-03-29T21:03:05.306Z,101501.78
2023-03-29T21:05:34.024Z,101507.53
2023-03-29T21:08:03.083Z,101499.84
2023-03-29T21:10:31.645Z,101505.34
2023-03-29T21:13:00.414Z,101497.66
2023-03-29T21:15:30.841Z,101506.75
2023-03-29T21:17:59.044Z,101504.25
2023-03-29T21:20:27.911Z,101497.38
2023-03-29T21:22:56.141Z,101509.75
2023-03-29T21:25:23.891Z,101500.72
2023-03-29T21:27:51.611Z,101496.88
2023-03-29T21:30:19.538Z,101495.75
2023-03-29T21:32:47.449Z,101494.97
2023-03-29T21:35:15.734Z,101488.94
2023-03-29T21:37:43.565Z,101487.81
2023-03-29T21:40:12.736Z,101496.06
2023-03-29T21:42:40.606Z,101496.59
2023-03-29T21:45:09.293Z,101498.25
2023-03-29T21:47:37.184Z,101502.66
2023-03-29T21:50:05.554Z,101502.09
2023-03-29T21:52:33.415Z,101500.16
2023-03-29T21:55:01.242Z,101501.50
2023-03-29T21:57:29.293Z,101501.00
2023-03-29T21:59:57.227Z,101505.97
2023-03-29T22:02:25.066Z,101497.69
2023-03-29T22:04:52.978Z,101495.75
2023-03-29T22:07:22.937Z,101491.34
2023-03-29T22:09:50.732Z,101489.16
2023-03-29T22:12:18.868Z,101482.84
2023-03-29T22:14:49.786Z,101480.13
2023-03-29T22:17:17.585Z,101487.25
2023-03-29T22:19:45.531Z,101488.91
2023-03-29T22:22:14.488Z,101488.91
2023-03-29T22:24:42.592Z,101490.31
2023-03-29T22:27:11.884Z,101477.91
2023-03-29T22:29:39.975Z,101473.81
2023-03-29T22:32:07.825Z,101476.56
2023-03-29T22:34:35.853Z,101481.78
2023-03-29T22:37:03.893Z,101475.69
2023-03-29T22:39:35.489Z,101465.28
2023-03-29T22:42:03.437Z,101472.69
2023-03-29T22:44:31.405Z,101478.47
2023-03-29T22:46:59.632Z,101482.88
2023-03-29T22:49:27.463Z,101473.53
2023-03-29T22:51:55.386Z,101470.50
2023-03-29T22:54:23.171Z,101469.41
2023-03-29T22:56:51.111Z,101464.72
2023-03-29T22:59:19.052Z,101476.81
2023-03-29T23:01:46.943Z,101483.97
2023-03-29T23:04:14.944Z,101487.81
2023-03-29T23:06:42.832Z,101490.28
2023-03-29T23:09:11.239Z,101475.47
2023-03-29T23:11:39.022Z,101476.56
2023-03-29T23:14:07.770Z,101481.78
2023-03-29T23:16:35.585Z,101483.44
2023-03-29T23:19:03.532Z,101488.66
2023-03-29T23:21:31.329Z,101496.88
2023-03-29T23:23:59.339Z,101494.41
2023-03-29T23:26:28.045Z,101497.44
2023-03-29T23:28:57.715Z,101511.44
2023-03-29T23:31:25.560Z,101505.97
2023-03-29T23:33:53.453Z,101507.06
2023-03-29T23:36:27.250Z,101506.53
2023-03-29T23:38:55.043Z,101508.13
2023-03-29T23:41:23.097Z,101503.78
2023-03-29T23:43:52.370Z,101508.72
2023-03-29T23:46:21.535Z,101513.63
2023-03-29T23:48:50.926Z,101511.97
2023-03-29T23:51:23.389Z,101513.06
2023-03-29T23:53:51.899Z,101513.91
2023-03-29T23:56:21.518Z,101512.53
2023-03-29T23:58:49.591Z,101500.69
